sensor_id;sensor_type;location;lat;lon;timestamp;P1;durP1;ratioP1;P2;durP2;ratioP2
16478;SDS011;8350;52.316;10.530;2022-07-06T00:02:00;2.20;;;1.40;;
16478;SDS011;8350;52.316;10.530;2022-07-06T00:04:28;1.98;;;1.20;;
16478;SDS011;8350;52.316;10.530;2022-07-06T00:06:55;1.90;;;1.25;;
16478;SDS011;8350;52.316;10.530;2022-07-06T00:09:22;3.55;;;1.50;;
16478;SDS011;8350;52.316;10.530;2022-07-06T00:11:49;2.08;;;1.60;;
16478;SDS011;8350;52.316;10.530;2022-07-06T00:14:16;3.42;;;1.65;;
16478;SDS011;8350;52.316;10.530;2022-07-06T00:16:42;3.13;;;1.50;;
16478;SDS011;8350;52.316;10.530;2022-07-06T00:19:09;7.28;;;1.65;;
16478;SDS011;8350;52.316;10.530;2022-07-06T00:21:37;3.88;;;1.77;;
16478;SDS011;8350;52.316;10.530;2022-07-06T00:24:04;3.10;;;1.52;;
16478;SDS011;8350;52.316;10.530;2022-07-06T00:26:31;2.08;;;1.33;;
16478;SDS011;8350;52.316;10.530;2022-07-06T00:28:58;3.67;;;1.63;;
16478;SDS011;8350;52.316;10.530;2022-07-06T00:31:24;3.30;;;1.45;;
16478;SDS011;8350;52.316;10.530;2022-07-06T00:33:51;3.38;;;1.60;;
16478;SDS011;8350;52.316;10.530;2022-07-06T00:36:18;3.08;;;1.50;;
16478;SDS011;8350;52.316;10.530;2022-07-06T00:38:46;4.55;;;1.30;;
16478;SDS011;8350;52.316;10.530;2022-07-06T00:41:13;3.03;;;1.40;;
16478;SDS011;8350;52.316;10.530;2022-07-06T00:43:46;3.35;;;1.38;;
16478;SDS011;8350;52.316;10.530;2022-07-06T00:46:14;2.97;;;1.38;;
16478;SDS011;8350;52.316;10.530;2022-07-06T00:48:41;3.53;;;1.70;;
16478;SDS011;8350;52.316;10.530;2022-07-06T00:51:08;2.95;;;1.60;;
16478;SDS011;8350;52.316;10.530;2022-07-06T00:53:35;2.13;;;1.30;;
16478;SDS011;8350;52.316;10.530;2022-07-06T00:56:05;2.03;;;1.50;;
16478;SDS011;8350;52.316;10.530;2022-07-06T00:58:31;6.57;;;1.40;;
16478;SDS011;8350;52.316;10.530;2022-07-06T01:00:59;3.65;;;1.60;;
16478;SDS011;8350;52.316;10.530;2022-07-06T01:03:25;2.72;;;1.38;;
16478;SDS011;8350;52.316;10.530;2022-07-06T01:05:52;2.30;;;1.45;;
16478;SDS011;8350;52.316;10.530;2022-07-06T01:08:19;2.95;;;1.55;;
16478;SDS011;8350;52.316;10.530;2022-07-06T01:10:46;7.47;;;1.65;;
16478;SDS011;8350;52.316;10.530;2022-07-06T01:13:14;4.38;;;1.70;;
16478;SDS011;8350;52.316;10.530;2022-07-06T01:15:41;5.55;;;1.77;;
16478;SDS011;8350;52.316;10.530;2022-07-06T01:18:09;1.92;;;1.38;;
16478;SDS011;8350;52.316;10.530;2022-07-06T01:20:38;3.20;;;1.40;;
16478;SDS011;8350;52.316;10.530;2022-07-06T01:23:05;7.07;;;1.85;;
16478;SDS011;8350;52.316;10.530;2022-07-06T01:25:32;1.63;;;1.50;;
16478;SDS011;8350;52.316;10.530;2022-07-06T01:27:58;3.67;;;1.90;;
16478;SDS011;8350;52.316;10.530;2022-07-06T01:30:25;4.32;;;1.60;;
16478;SDS011;8350;52.316;10.530;2022-07-06T01:32:52;2.58;;;1.60;;
16478;SDS011;8350;52.316;10.530;2022-07-06T01:35:19;3.67;;;1.60;;
16478;SDS011;8350;52.316;10.530;2022-07-06T01:37:47;3.28;;;1.92;;
16478;SDS011;8350;52.316;10.530;2022-07-06T01:40:14;4.88;;;1.60;;
16478;SDS011;8350;52.316;10.530;2022-07-06T01:42:41;4.97;;;1.85;;
16478;SDS011;8350;52.316;10.530;2022-07-06T01:45:08;3.15;;;1.60;;
16478;SDS011;8350;52.316;10.530;2022-07-06T01:47:36;5.30;;;1.60;;
16478;SDS011;8350;52.316;10.530;2022-07-06T01:50:04;2.88;;;1.60;;
16478;SDS011;8350;52.316;10.530;2022-07-06T01:52:32;4.78;;;1.88;;
16478;SDS011;8350;52.316;10.530;2022-07-06T01:55:01;3.70;;;1.92;;
16478;SDS011;8350;52.316;10.530;2022-07-06T01:57:28;3.53;;;1.55;;
16478;SDS011;8350;52.316;10.530;2022-07-06T01:59:55;2.65;;;1.83;;
16478;SDS011;8350;52.316;10.530;2022-07-06T02:02:22;2.83;;;1.77;;
16478;SDS011;8350;52.316;10.530;2022-07-06T02:04:50;2.35;;;1.60;;
16478;SDS011;8350;52.316;10.530;2022-07-06T02:07:16;3.60;;;1.10;;
16478;SDS011;8350;52.316;10.530;2022-07-06T02:09:43;2.95;;;1.35;;
16478;SDS011;8350;52.316;10.530;2022-07-06T02:12:11;4.07;;;1.85;;
16478;SDS011;8350;52.316;10.530;2022-07-06T02:14:38;6.88;;;1.55;;
16478;SDS011;8350;52.316;10.530;2022-07-06T02:17:05;2.95;;;1.38;;
16478;SDS011;8350;52.316;10.530;2022-07-06T02:19:34;2.80;;;1.45;;
16478;SDS011;8350;52.316;10.530;2022-07-06T02:22:01;3.03;;;1.40;;
16478;SDS011;8350;52.316;10.530;2022-07-06T02:24:28;2.20;;;1.38;;
16478;SDS011;8350;52.316;10.530;2022-07-06T02:26:54;3.85;;;1.55;;
16478;SDS011;8350;52.316;10.530;2022-07-06T02:29:23;2.22;;;1.48;;
16478;SDS011;8350;52.316;10.530;2022-07-06T02:31:51;2.80;;;1.90;;
16478;SDS011;8350;52.316;10.530;2022-07-06T02:34:17;3.50;;;1.75;;
16478;SDS011;8350;52.316;10.530;2022-07-06T02:36:44;2.88;;;1.70;;
16478;SDS011;8350;52.316;10.530;2022-07-06T02:39:11;2.80;;;1.60;;
16478;SDS011;8350;52.316;10.530;2022-07-06T02:41:37;3.78;;;1.40;;
16478;SDS011;8350;52.316;10.530;2022-07-06T02:44:04;3.47;;;1.63;;
16478;SDS011;8350;52.316;10.530;2022-07-06T02:46:32;2.70;;;1.83;;
16478;SDS011;8350;52.316;10.530;2022-07-06T02:48:59;3.47;;;1.40;;
16478;SDS011;8350;52.316;10.530;2022-07-06T02:51:26;3.00;;;1.38;;
16478;SDS011;8350;52.316;10.530;2022-07-06T02:53:52;4.03;;;1.52;;
16478;SDS011;8350;52.316;10.530;2022-07-06T02:56:21;2.88;;;1.52;;
16478;SDS011;8350;52.316;10.530;2022-07-06T02:58:48;4.30;;;1.20;;
16478;SDS011;8350;52.316;10.530;2022-07-06T03:01:14;4.07;;;1.50;;
16478;SDS011;8350;52.316;10.530;2022-07-06T03:03:42;3.38;;;1.70;;
16478;SDS011;8350;52.316;10.530;2022-07-06T03:06:23;2.13;;;1.27;;
16478;SDS011;8350;52.316;10.530;2022-07-06T03:08:50;3.65;;;1.83;;
16478;SDS011;8350;52.316;10.530;2022-07-06T03:11:16;4.30;;;2.00;;
16478;SDS011;8350;52.316;10.530;2022-07-06T03:13:43;3.35;;;1.40;;
16478;SDS011;8350;52.316;10.530;2022-07-06T03:16:10;2.65;;;1.77;;
16478;SDS011;8350;52.316;10.530;2022-07-06T03:18:36;3.03;;;1.40;;
16478;SDS011;8350;52.316;10.530;2022-07-06T03:21:05;4.47;;;2.00;;
16478;SDS011;8350;52.316;10.530;2022-07-06T03:23:31;2.28;;;1.50;;
16478;SDS011;8350;52.316;10.530;2022-07-06T03:25:58;5.70;;;1.60;;
16478;SDS011;8350;52.316;10.530;2022-07-06T03:28:25;4.55;;;1.40;;
16478;SDS011;8350;52.316;10.530;2022-07-06T03:30:52;2.65;;;1.35;;
16478;SDS011;8350;52.316;10.530;2022-07-06T03:33:18;3.97;;;1.65;;
16478;SDS011;8350;52.316;10.530;2022-07-06T03:35:51;2.38;;;1.30;;
16478;SDS011;8350;52.316;10.530;2022-07-06T03:38:19;3.28;;;1.75;;
16478;SDS011;8350;52.316;10.530;2022-07-06T03:40:46;4.15;;;1.60;;
16478;SDS011;8350;52.316;10.530;2022-07-06T03:43:12;3.60;;;1.33;;
16478;SDS011;8350;52.316;10.530;2022-07-06T03:45:39;3.55;;;1.30;;
16478;SDS011;8350;52.316;10.530;2022-07-06T03:48:06;2.75;;;1.40;;
16478;SDS011;8350;52.316;10.530;2022-07-06T03:50:33;3.58;;;1.60;;
16478;SDS011;8350;52.316;10.530;2022-07-06T03:53:00;5.50;;;1.70;;
16478;SDS011;8350;52.316;10.530;2022-07-06T03:55:28;2.00;;;1.13;;
16478;SDS011;8350;52.316;10.530;2022-07-06T03:57:54;1.98;;;1.33;;
16478;SDS011;8350;52.316;10.530;2022-07-06T04:00:21;3.97;;;1.88;;
16478;SDS011;8350;52.316;10.530;2022-07-06T04:02:48;4.15;;;1.35;;
16478;SDS011;8350;52.316;10.530;2022-07-06T04:05:14;1.92;;;1.45;;
16478;SDS011;8350;52.316;10.530;2022-07-06T04:07:45;3.50;;;1.55;;
16478;SDS011;8350;52.316;10.530;2022-07-06T04:10:12;2.13;;;1.20;;
16478;SDS011;8350;52.316;10.530;2022-07-06T04:12:41;4.53;;;1.70;;
16478;SDS011;8350;52.316;10.530;2022-07-06T04:15:11;3.65;;;1.65;;
16478;SDS011;8350;52.316;10.530;2022-07-06T04:17:38;3.83;;;2.00;;
16478;SDS011;8350;52.316;10.530;2022-07-06T04:20:21;2.00;;;1.52;;
16478;SDS011;8350;52.316;10.530;2022-07-06T04:22:50;4.43;;;1.60;;
16478;SDS011;8350;52.316;10.530;2022-07-06T04:25:17;3.90;;;1.63;;
16478;SDS011;8350;52.316;10.530;2022-07-06T04:27:45;6.32;;;1.65;;
16478;SDS011;8350;52.316;10.530;2022-07-06T04:30:12;5.13;;;1.48;;
16478;SDS011;8350;52.316;10.530;2022-07-06T04:32:42;4.55;;;1.90;;
16478;SDS011;8350;52.316;10.530;2022-07-06T04:35:09;7.25;;;1.63;;
16478;SDS011;8350;52.316;10.530;2022-07-06T04:37:37;2.70;;;1.30;;
16478;SDS011;8350;52.316;10.530;2022-07-06T04:40:04;4.72;;;1.55;;
16478;SDS011;8350;52.316;10.530;2022-07-06T04:42:32;3.33;;;1.38;;
16478;SDS011;8350;52.316;10.530;2022-07-06T04:45:00;4.70;;;1.98;;
16478;SDS011;8350;52.316;10.530;2022-07-06T04:47:27;4.93;;;1.75;;
16478;SDS011;8350;52.316;10.530;2022-07-06T04:49:53;3.83;;;1.45;;
16478;SDS011;8350;52.316;10.530;2022-07-06T04:52:20;6.32;;;1.77;;
16478;SDS011;8350;52.316;10.530;2022-07-06T04:54:47;3.60;;;1.50;;
16478;SDS011;8350;52.316;10.530;2022-07-06T04:57:13;3.63;;;1.25;;
16478;SDS011;8350;52.316;10.530;2022-07-06T04:59:40;5.00;;;1.33;;
16478;SDS011;8350;52.316;10.530;2022-07-06T05:02:08;3.72;;;1.88;;
16478;SDS011;8350;52.316;10.530;2022-07-06T05:04:35;7.07;;;1.50;;
16478;SDS011;8350;52.316;10.530;2022-07-06T05:07:02;3.00;;;1.48;;
16478;SDS011;8350;52.316;10.530;2022-07-06T05:09:30;3.15;;;1.50;;
16478;SDS011;8350;52.316;10.530;2022-07-06T05:11:57;2.58;;;1.05;;
16478;SDS011;8350;52.316;10.530;2022-07-06T05:14:23;3.85;;;1.80;;
16478;SDS011;8350;52.316;10.530;2022-07-06T05:16:50;5.82;;;1.83;;
16478;SDS011;8350;52.316;10.530;2022-07-06T05:19:18;3.50;;;1.67;;
16478;SDS011;8350;52.316;10.530;2022-07-06T05:21:45;4.07;;;1.88;;
16478;SDS011;8350;52.316;10.530;2022-07-06T05:24:12;4.47;;;1.95;;
16478;SDS011;8350;52.316;10.530;2022-07-06T05:26:40;4.32;;;1.40;;
16478;SDS011;8350;52.316;10.530;2022-07-06T05:29:07;3.75;;;1.60;;
16478;SDS011;8350;52.316;10.530;2022-07-06T05:31:47;2.85;;;1.75;;
16478;SDS011;8350;52.316;10.530;2022-07-06T05:34:23;7.18;;;1.80;;
16478;SDS011;8350;52.316;10.530;2022-07-06T05:36:50;2.72;;;1.33;;
16478;SDS011;8350;52.316;10.530;2022-07-06T05:39:17;3.92;;;1.67;;
16478;SDS011;8350;52.316;10.530;2022-07-06T05:41:48;5.15;;;1.40;;
16478;SDS011;8350;52.316;10.530;2022-07-06T05:44:15;6.90;;;1.80;;
16478;SDS011;8350;52.316;10.530;2022-07-06T05:46:42;3.65;;;1.27;;
16478;SDS011;8350;52.316;10.530;2022-07-06T05:49:10;4.22;;;1.45;;
16478;SDS011;8350;52.316;10.530;2022-07-06T05:51:56;2.60;;;1.15;;
16478;SDS011;8350;52.316;10.530;2022-07-06T05:54:23;2.35;;;1.27;;
16478;SDS011;8350;52.316;10.530;2022-07-06T05:56:50;3.35;;;1.20;;
16478;SDS011;8350;52.316;10.530;2022-07-06T05:59:16;5.05;;;1.30;;
16478;SDS011;8350;52.316;10.530;2022-07-06T06:01:43;4.20;;;1.42;;
16478;SDS011;8350;52.316;10.530;2022-07-06T06:04:10;3.13;;;1.48;;
16478;SDS011;8350;52.316;10.530;2022-07-06T06:06:37;4.05;;;1.50;;
16478;SDS011;8350;52.316;10.530;2022-07-06T06:09:05;3.33;;;1.23;;
16478;SDS011;8350;52.316;10.530;2022-07-06T06:11:32;5.32;;;1.50;;
16478;SDS011;8350;52.316;10.530;2022-07-06T06:13:58;2.33;;;1.08;;
16478;SDS011;8350;52.316;10.530;2022-07-06T06:16:25;4.40;;;1.30;;
16478;SDS011;8350;52.316;10.530;2022-07-06T06:18:52;5.18;;;1.45;;
16478;SDS011;8350;52.316;10.530;2022-07-06T06:21:19;1.88;;;0.90;;
16478;SDS011;8350;52.316;10.530;2022-07-06T06:23:46;3.10;;;1.23;;
16478;SDS011;8350;52.316;10.530;2022-07-06T06:26:14;3.13;;;1.45;;
16478;SDS011;8350;52.316;10.530;2022-07-06T06:28:40;8.20;;;1.60;;
16478;SDS011;8350;52.316;10.530;2022-07-06T06:31:07;3.95;;;1.20;;
16478;SDS011;8350;52.316;10.530;2022-07-06T06:33:34;3.70;;;1.05;;
16478;SDS011;8350;52.316;10.530;2022-07-06T06:36:01;3.38;;;1.27;;
16478;SDS011;8350;52.316;10.530;2022-07-06T06:38:32;3.80;;;1.88;;
16478;SDS011;8350;52.316;10.530;2022-07-06T06:40:59;5.53;;;1.38;;
16478;SDS011;8350;52.316;10.530;2022-07-06T06:43:28;3.08;;;1.30;;
16478;SDS011;8350;52.316;10.530;2022-07-06T06:45:54;5.88;;;1.70;;
16478;SDS011;8350;52.316;10.530;2022-07-06T06:48:21;3.38;;;1.23;;
16478;SDS011;8350;52.316;10.530;2022-07-06T06:50:48;4.72;;;1.33;;
16478;SDS011;8350;52.316;10.530;2022-07-06T06:53:15;1.83;;;1.20;;
16478;SDS011;8350;52.316;10.530;2022-07-06T06:55:41;8.77;;;1.60;;
16478;SDS011;8350;52.316;10.530;2022-07-06T06:58:08;6.65;;;1.10;;
16478;SDS011;8350;52.316;10.530;2022-07-06T07:00:36;3.65;;;1.20;;
16478;SDS011;8350;52.316;10.530;2022-07-06T07:03:03;4.03;;;1.33;;
16478;SDS011;8350;52.316;10.530;2022-07-06T07:05:32;4.38;;;1.20;;
16478;SDS011;8350;52.316;10.530;2022-07-06T07:07:58;2.28;;;1.10;;
16478;SDS011;8350;52.316;10.530;2022-07-06T07:10:25;5.75;;;1.10;;
16478;SDS011;8350;52.316;10.530;2022-07-06T07:12:52;4.10;;;1.45;;
16478;SDS011;8350;52.316;10.530;2022-07-06T07:15:22;6.10;;;1.55;;
16478;SDS011;8350;52.316;10.530;2022-07-06T07:17:51;3.80;;;1.35;;
16478;SDS011;8350;52.316;10.530;2022-07-06T07:20:18;2.78;;;1.23;;
16478;SDS011;8350;52.316;10.530;2022-07-06T07:22:45;3.53;;;1.30;;
16478;SDS011;8350;52.316;10.530;2022-07-06T07:25:12;4.63;;;1.42;;
16478;SDS011;8350;52.316;10.530;2022-07-06T07:27:39;3.90;;;1.02;;
16478;SDS011;8350;52.316;10.530;2022-07-06T07:30:06;2.38;;;1.27;;
16478;SDS011;8350;52.316;10.530;2022-07-06T07:32:34;4.10;;;1.20;;
16478;SDS011;8350;52.316;10.530;2022-07-06T07:35:07;4.35;;;1.10;;
16478;SDS011;8350;52.316;10.530;2022-07-06T07:37:35;1.58;;;0.63;;
16478;SDS011;8350;52.316;10.530;2022-07-06T07:40:05;3.55;;;1.10;;
16478;SDS011;8350;52.316;10.530;2022-07-06T07:42:33;3.20;;;1.27;;
16478;SDS011;8350;52.316;10.530;2022-07-06T07:45:00;4.25;;;1.42;;
16478;SDS011;8350;52.316;10.530;2022-07-06T07:47:27;4.57;;;1.20;;
16478;SDS011;8350;52.316;10.530;2022-07-06T07:49:54;1.70;;;1.40;;
16478;SDS011;8350;52.316;10.530;2022-07-06T07:52:22;1.40;;;1.00;;
16478;SDS011;8350;52.316;10.530;2022-07-06T07:54:49;2.50;;;1.00;;
16478;SDS011;8350;52.316;10.530;2022-07-06T07:57:15;2.50;;;1.00;;
16478;SDS011;8350;52.316;10.530;2022-07-06T07:59:42;2.65;;;1.02;;
16478;SDS011;8350;52.316;10.530;2022-07-06T08:02:11;2.00;;;1.00;;
16478;SDS011;8350;52.316;10.530;2022-07-06T08:04:38;5.57;;;1.13;;
16478;SDS011;8350;52.316;10.530;2022-07-06T08:07:07;3.50;;;0.77;;
16478;SDS011;8350;52.316;10.530;2022-07-06T08:09:35;2.80;;;0.90;;
16478;SDS011;8350;52.316;10.530;2022-07-06T08:12:03;2.88;;;0.80;;
16478;SDS011;8350;52.316;10.530;2022-07-06T08:14:30;4.82;;;1.20;;
16478;SDS011;8350;52.316;10.530;2022-07-06T08:16:56;4.25;;;1.15;;
16478;SDS011;8350;52.316;10.530;2022-07-06T08:19:23;2.00;;;0.65;;
16478;SDS011;8350;52.316;10.530;2022-07-06T08:21:50;2.47;;;0.82;;
16478;SDS011;8350;52.316;10.530;2022-07-06T08:24:17;4.68;;;0.90;;
16478;SDS011;8350;52.316;10.530;2022-07-06T08:26:45;4.00;;;0.98;;
16478;SDS011;8350;52.316;10.530;2022-07-06T08:29:12;3.55;;;1.02;;
16478;SDS011;8350;52.316;10.530;2022-07-06T08:31:39;3.28;;;0.85;;
16478;SDS011;8350;52.316;10.530;2022-07-06T08:34:06;2.78;;;0.73;;
16478;SDS011;8350;52.316;10.530;2022-07-06T08:36:34;3.47;;;0.80;;
16478;SDS011;8350;52.316;10.530;2022-07-06T08:39:01;3.42;;;0.93;;
16478;SDS011;8350;52.316;10.530;2022-07-06T08:41:28;2.20;;;1.20;;
16478;SDS011;8350;52.316;10.530;2022-07-06T08:43:57;2.58;;;0.80;;
16478;SDS011;8350;52.316;10.530;2022-07-06T08:46:24;3.58;;;0.90;;
16478;SDS011;8350;52.316;10.530;2022-07-06T08:48:53;2.33;;;0.80;;
16478;SDS011;8350;52.316;10.530;2022-07-06T08:51:21;1.85;;;0.90;;
16478;SDS011;8350;52.316;10.530;2022-07-06T08:53:52;2.92;;;1.00;;
16478;SDS011;8350;52.316;10.530;2022-07-06T08:56:26;2.90;;;0.80;;
16478;SDS011;8350;52.316;10.530;2022-07-06T08:58:54;4.95;;;1.00;;
16478;SDS011;8350;52.316;10.530;2022-07-06T09:01:23;1.75;;;0.75;;
16478;SDS011;8350;52.316;10.530;2022-07-06T09:03:50;2.95;;;0.73;;
16478;SDS011;8350;52.316;10.530;2022-07-06T09:06:19;2.20;;;0.80;;
16478;SDS011;8350;52.316;10.530;2022-07-06T09:08:50;3.25;;;0.80;;
16478;SDS011;8350;52.316;10.530;2022-07-06T09:11:20;1.63;;;0.70;;
16478;SDS011;8350;52.316;10.530;2022-07-06T09:13:48;2.58;;;1.00;;
16478;SDS011;8350;52.316;10.530;2022-07-06T09:16:17;4.43;;;0.90;;
16478;SDS011;8350;52.316;10.530;2022-07-06T09:18:50;1.50;;;0.70;;
16478;SDS011;8350;52.316;10.530;2022-07-06T09:21:22;3.22;;;0.93;;
16478;SDS011;8350;52.316;10.530;2022-07-06T09:23:52;1.40;;;0.60;;
16478;SDS011;8350;52.316;10.530;2022-07-06T09:26:20;1.48;;;0.57;;
16478;SDS011;8350;52.316;10.530;2022-07-06T09:28:47;1.30;;;0.60;;
16478;SDS011;8350;52.316;10.530;2022-07-06T09:31:14;1.60;;;0.70;;
16478;SDS011;8350;52.316;10.530;2022-07-06T09:33:54;2.08;;;0.80;;
16478;SDS011;8350;52.316;10.530;2022-07-06T09:36:41;1.85;;;0.70;;
16478;SDS011;8350;52.316;10.530;2022-07-06T09:39:15;1.83;;;0.90;;
16478;SDS011;8350;52.316;10.530;2022-07-06T09:41:43;1.73;;;0.68;;
16478;SDS011;8350;52.316;10.530;2022-07-06T09:44:11;2.20;;;0.75;;
16478;SDS011;8350;52.316;10.530;2022-07-06T09:46:38;1.80;;;0.60;;
16478;SDS011;8350;52.316;10.530;2022-07-06T09:49:08;1.10;;;0.60;;
16478;SDS011;8350;52.316;10.530;2022-07-06T09:51:36;2.65;;;0.63;;
16478;SDS011;8350;52.316;10.530;2022-07-06T09:54:06;2.20;;;0.60;;
16478;SDS011;8350;52.316;10.530;2022-07-06T09:56:37;1.15;;;0.40;;
16478;SDS011;8350;52.316;10.530;2022-07-06T09:59:07;1.08;;;0.70;;
16478;SDS011;8350;52.316;10.530;2022-07-06T10:01:35;2.88;;;0.47;;
16478;SDS011;8350;52.316;10.530;2022-07-06T10:04:03;3.65;;;0.90;;
16478;SDS011;8350;52.316;10.530;2022-07-06T10:06:33;3.35;;;0.82;;
16478;SDS011;8350;52.316;10.530;2022-07-06T10:09:00;1.45;;;0.75;;
16478;SDS011;8350;52.316;10.530;2022-07-06T10:11:33;1.67;;;0.50;;
16478;SDS011;8350;52.316;10.530;2022-07-06T10:14:03;2.83;;;0.52;;
16478;SDS011;8350;52.316;10.530;2022-07-06T10:16:33;1.50;;;0.50;;
16478;SDS011;8350;52.316;10.530;2022-07-06T10:19:02;3.28;;;0.50;;
16478;SDS011;8350;52.316;10.530;2022-07-06T10:21:33;2.80;;;0.70;;
16478;SDS011;8350;52.316;10.530;2022-07-06T10:24:04;1.88;;;0.73;;
16478;SDS011;8350;52.316;10.530;2022-07-06T10:26:32;1.35;;;0.60;;
16478;SDS011;8350;52.316;10.530;2022-07-06T10:29:00;3.83;;;0.85;;
16478;SDS011;8350;52.316;10.530;2022-07-06T10:31:28;4.38;;;0.57;;
16478;SDS011;8350;52.316;10.530;2022-07-06T10:33:56;0.88;;;0.43;;
16478;SDS011;8350;52.316;10.530;2022-07-06T10:36:24;0.85;;;0.60;;
16478;SDS011;8350;52.316;10.530;2022-07-06T10:38:53;3.33;;;1.52;;
16478;SDS011;8350;52.316;10.530;2022-07-06T10:41:29;2.45;;;0.77;;
16478;SDS011;8350;52.316;10.530;2022-07-06T10:43:56;2.67;;;0.80;;
16478;SDS011;8350;52.316;10.530;2022-07-06T10:46:32;2.50;;;0.73;;
16478;SDS011;8350;52.316;10.530;2022-07-06T10:49:03;3.13;;;1.30;;
16478;SDS011;8350;52.316;10.530;2022-07-06T10:51:41;2.17;;;0.90;;
16478;SDS011;8350;52.316;10.530;2022-07-06T10:54:09;2.25;;;0.70;;
16478;SDS011;8350;52.316;10.530;2022-07-06T10:56:37;1.00;;;0.50;;
16478;SDS011;8350;52.316;10.530;2022-07-06T10:59:11;1.38;;;0.60;;
16478;SDS011;8350;52.316;10.530;2022-07-06T11:01:38;1.70;;;0.55;;
16478;SDS011;8350;52.316;10.530;2022-07-06T11:04:07;1.33;;;0.77;;
16478;SDS011;8350;52.316;10.530;2022-07-06T11:06:35;2.03;;;0.65;;
16478;SDS011;8350;52.316;10.530;2022-07-06T11:09:08;1.90;;;0.77;;
16478;SDS011;8350;52.316;10.530;2022-07-06T11:11:37;3.53;;;0.82;;
16478;SDS011;8350;52.316;10.530;2022-07-06T11:14:07;1.65;;;0.50;;
16478;SDS011;8350;52.316;10.530;2022-07-06T11:16:36;2.28;;;0.80;;
16478;SDS011;8350;52.316;10.530;2022-07-06T11:19:08;3.30;;;0.47;;
16478;SDS011;8350;52.316;10.530;2022-07-06T11:21:39;1.88;;;0.43;;
16478;SDS011;8350;52.316;10.530;2022-07-06T11:24:13;3.95;;;0.68;;
16478;SDS011;8350;52.316;10.530;2022-07-06T11:26:42;3.08;;;0.80;;
16478;SDS011;8350;52.316;10.530;2022-07-06T11:29:11;2.38;;;0.80;;
16478;SDS011;8350;52.316;10.530;2022-07-06T11:31:43;2.10;;;0.60;;
16478;SDS011;8350;52.316;10.530;2022-07-06T11:34:12;1.85;;;0.70;;
16478;SDS011;8350;52.316;10.530;2022-07-06T11:36:40;2.72;;;0.93;;
16478;SDS011;8350;52.316;10.530;2022-07-06T11:39:09;6.03;;;0.93;;
16478;SDS011;8350;52.316;10.530;2022-07-06T11:41:38;1.85;;;0.60;;
16478;SDS011;8350;52.316;10.530;2022-07-06T11:44:05;3.10;;;0.80;;
16478;SDS011;8350;52.316;10.530;2022-07-06T11:46:32;1.13;;;0.50;;
16478;SDS011;8350;52.316;10.530;2022-07-06T11:49:00;2.25;;;0.95;;
16478;SDS011;8350;52.316;10.530;2022-07-06T11:51:29;2.20;;;0.82;;
16478;SDS011;8350;52.316;10.530;2022-07-06T11:53:58;1.88;;;0.93;;
16478;SDS011;8350;52.316;10.530;2022-07-06T11:56:26;2.13;;;0.70;;
16478;SDS011;8350;52.316;10.530;2022-07-06T11:58:56;2.58;;;0.75;;
16478;SDS011;8350;52.316;10.530;2022-07-06T12:01:25;2.13;;;0.75;;
16478;SDS011;8350;52.316;10.530;2022-07-06T12:03:53;2.42;;;0.80;;
16478;SDS011;8350;52.316;10.530;2022-07-06T12:06:24;1.55;;;0.77;;
16478;SDS011;8350;52.316;10.530;2022-07-06T12:08:52;3.92;;;1.00;;
16478;SDS011;8350;52.316;10.530;2022-07-06T12:11:23;4.22;;;0.70;;
16478;SDS011;8350;52.316;10.530;2022-07-06T12:13:51;2.53;;;1.08;;
16478;SDS011;8350;52.316;10.530;2022-07-06T12:16:28;3.58;;;1.13;;
16478;SDS011;8350;52.316;10.530;2022-07-06T12:18:55;1.98;;;0.77;;
16478;SDS011;8350;52.316;10.530;2022-07-06T12:21:22;2.25;;;0.80;;
16478;SDS011;8350;52.316;10.530;2022-07-06T12:23:50;3.30;;;0.90;;
16478;SDS011;8350;52.316;10.530;2022-07-06T12:26:18;3.28;;;0.82;;
16478;SDS011;8350;52.316;10.530;2022-07-06T12:28:59;2.30;;;0.60;;
16478;SDS011;8350;52.316;10.530;2022-07-06T12:31:36;2.80;;;0.88;;
16478;SDS011;8350;52.316;10.530;2022-07-06T12:34:04;1.50;;;0.50;;
16478;SDS011;8350;52.316;10.530;2022-07-06T12:36:41;2.75;;;0.60;;
16478;SDS011;8350;52.316;10.530;2022-07-06T12:39:10;4.55;;;1.25;;
16478;SDS011;8350;52.316;10.530;2022-07-06T12:41:41;3.25;;;0.75;;
16478;SDS011;8350;52.316;10.530;2022-07-06T12:44:10;1.80;;;0.60;;
16478;SDS011;8350;52.316;10.530;2022-07-06T12:46:49;1.90;;;0.60;;
16478;SDS011;8350;52.316;10.530;2022-07-06T12:49:17;4.82;;;0.70;;
16478;SDS011;8350;52.316;10.530;2022-07-06T12:51:49;3.22;;;0.60;;
16478;SDS011;8350;52.316;10.530;2022-07-06T12:54:17;1.52;;;0.57;;
16478;SDS011;8350;52.316;10.530;2022-07-06T12:57:00;0.90;;;0.60;;
16478;SDS011;8350;52.316;10.530;2022-07-06T12:59:33;2.00;;;0.50;;
16478;SDS011;8350;52.316;10.530;2022-07-06T13:02:03;2.70;;;0.70;;
16478;SDS011;8350;52.316;10.530;2022-07-06T13:04:33;3.28;;;0.70;;
16478;SDS011;8350;52.316;10.530;2022-07-06T13:07:01;2.10;;;0.70;;
16478;SDS011;8350;52.316;10.530;2022-07-06T13:09:28;3.22;;;0.60;;
16478;SDS011;8350;52.316;10.530;2022-07-06T13:11:58;1.60;;;0.60;;
16478;SDS011;8350;52.316;10.530;2022-07-06T13:14:25;1.45;;;0.52;;
16478;SDS011;8350;52.316;10.530;2022-07-06T13:16:52;2.28;;;0.77;;
16478;SDS011;8350;52.316;10.530;2022-07-06T13:19:21;0.93;;;0.75;;
16478;SDS011;8350;52.316;10.530;2022-07-06T13:21:48;3.00;;;0.98;;
16478;SDS011;8350;52.316;10.530;2022-07-06T13:24:15;2.92;;;0.55;;
16478;SDS011;8350;52.316;10.530;2022-07-06T13:26:42;4.50;;;1.10;;
16478;SDS011;8350;52.316;10.530;2022-07-06T13:29:10;3.60;;;0.90;;
16478;SDS011;8350;52.316;10.530;2022-07-06T13:31:37;4.15;;;0.80;;
16478;SDS011;8350;52.316;10.530;2022-07-06T13:34:06;4.63;;;1.08;;
16478;SDS011;8350;52.316;10.530;2022-07-06T13:36:45;3.90;;;0.70;;
16478;SDS011;8350;52.316;10.530;2022-07-06T13:39:15;2.08;;;0.60;;
16478;SDS011;8350;52.316;10.530;2022-07-06T13:41:42;4.78;;;0.80;;
16478;SDS011;8350;52.316;10.530;2022-07-06T13:44:09;2.90;;;0.50;;
16478;SDS011;8350;52.316;10.530;2022-07-06T13:46:37;3.17;;;0.75;;
16478;SDS011;8350;52.316;10.530;2022-07-06T13:49:05;2.30;;;0.63;;
16478;SDS011;8350;52.316;10.530;2022-07-06T13:51:32;4.20;;;0.90;;
16478;SDS011;8350;52.316;10.530;2022-07-06T13:54:01;1.42;;;0.50;;
16478;SDS011;8350;52.316;10.530;2022-07-06T13:56:28;2.25;;;0.80;;
16478;SDS011;8350;52.316;10.530;2022-07-06T13:58:55;1.95;;;0.52;;
16478;SDS011;8350;52.316;10.530;2022-07-06T14:01:22;3.95;;;1.00;;
16478;SDS011;8350;52.316;10.530;2022-07-06T14:03:51;2.33;;;0.70;;
16478;SDS011;8350;52.316;10.530;2022-07-06T14:06:18;3.22;;;0.65;;
16478;SDS011;8350;52.316;10.530;2022-07-06T14:08:45;1.95;;;0.80;;
16478;SDS011;8350;52.316;10.530;2022-07-06T14:11:14;3.67;;;0.82;;
16478;SDS011;8350;52.316;10.530;2022-07-06T14:13:43;1.77;;;0.40;;
16478;SDS011;8350;52.316;10.530;2022-07-06T14:16:10;2.20;;;0.77;;
16478;SDS011;8350;52.316;10.530;2022-07-06T14:18:37;2.83;;;0.70;;
16478;SDS011;8350;52.316;10.530;2022-07-06T14:21:08;4.53;;;0.77;;
16478;SDS011;8350;52.316;10.530;2022-07-06T14:23:35;2.42;;;0.77;;
16478;SDS011;8350;52.316;10.530;2022-07-06T14:26:01;2.25;;;0.80;;
16478;SDS011;8350;52.316;10.530;2022-07-06T14:28:29;2.67;;;0.70;;
16478;SDS011;8350;52.316;10.530;2022-07-06T14:30:56;0.90;;;0.45;;
16478;SDS011;8350;52.316;10.530;2022-07-06T14:33:29;2.17;;;0.60;;
16478;SDS011;8350;52.316;10.530;2022-07-06T14:35:56;1.83;;;0.55;;
16478;SDS011;8350;52.316;10.530;2022-07-06T14:38:23;1.30;;;0.57;;
16478;SDS011;8350;52.316;10.530;2022-07-06T14:40:52;2.33;;;0.70;;
16478;SDS011;8350;52.316;10.530;2022-07-06T14:43:19;1.33;;;0.57;;
16478;SDS011;8350;52.316;10.530;2022-07-06T14:45:47;2.20;;;0.60;;
16478;SDS011;8350;52.316;10.530;2022-07-06T14:48:14;1.58;;;0.93;;
16478;SDS011;8350;52.316;10.530;2022-07-06T14:50:41;2.47;;;0.77;;
16478;SDS011;8350;52.316;10.530;2022-07-06T14:53:08;1.50;;;0.55;;
16478;SDS011;8350;52.316;10.530;2022-07-06T14:55:37;1.55;;;0.68;;